Huvudsida
METAR-TAF:

METAR-TAF

Flygplatser :

Billunds flygplats

Billund, Danmark

latitud: 55-44N, longitud: 009-10E, höjd: 75 m

Aktuellt väderrapport

Denna rapport gjordes för 5 minuter sedan, klockan 14:50 UTC
Vind 17 kt från väst/nordväst
Temperatur 18°C
Fuktighet 56%
Tryck 1017 hPa
Sikt 10 km eller mer

METAR: EKBI 201450Z AUTO 30017KT 9999NDV BKN037/// 18/09 Q1017

Tid: 16:55 (14:55 UTC)

Väderprognos

Denna rapport gjordes för 3 timmar och 53 minuter sedan, klockan 11:02 UTC
Prognos gäller från 20 kl. 12 UTC till 21 kl. 12 UTC
Vind 12 kt från nordväst
Sikt 10 km eller mer
Spridda moln på en höjd av 2000 ft
Temporärt
från 20 kl. 12 UTC till 20 kl. 16 UTC
Vind 15 kt från väst/nordväst i byarna ända upp till 25 kt
Blir
från 20 kl. 16 UTC till 20 kl. 19 UTC
Vind 6 kt från väst

TAF: EKBI 201102Z 2012/2112 31012KT 9999 SCT020 TEMPO 2012/2016 30015G25KT BECMG 2016/2019 28006KT

Aktuella väderrapporter och prognoser från 4000 flygplatser (METAR- och TAF-rapporter).

De tillgängliga stationerna syns som gula och röda prickar på kartan.

För musen över prickarna för att se namnen på stationerna.

Klicka sedan för att få väderrapporter och prognoser.

För att ändra kartan: Klicka på de gröna knapparna med ett svart kors på för att zooma in; den gröna knappen med ett streck på för att zooma ut; eller på de gröna pilarna för angränsande kartor.


METAR-TAF: